Time;durP1;ratioP1;P1;durP2;ratioP2;P2;SDS_P1;SDS_P2;PMS_P1;PMS_P2;Temp;Humidity;BMP_temperature;BMP_pressure;BME280_temperature;BME280_humidity;BME280_pressure;Samples;Min_cycle;Max_cycle;Signal;HPM_P1;HPM_P2
2022/12/18 00:01:42;;;;;;;54.00;18.65;;;-5.50;99.90;;;;;;7402794;19;20406;-68
2022/12/18 00:04:23;;;;;;;57.58;20.27;;;-4.30;99.90;;;;;;7406911;19;19927;-68
2022/12/18 00:06:52;;;;;;;55.03;19.08;;;-4.90;99.90;;;;;;7404455;19;19918;-67
2022/12/18 00:09:21;;;;;;;55.80;18.88;;;-5.10;99.90;;;;;;7404538;19;19966;-68
2022/12/18 00:11:54;;;;;;;61.42;19.80;;;-5.30;99.90;;;;;;7406222;19;19996;-68
2022/12/18 00:14:23;;;;;;;72.75;20.23;;;-5.30;99.90;;;;;;7404792;19;19918;-68
2022/12/18 00:16:52;;;;;;;72.82;20.00;;;-4.20;99.90;;;;;;7404755;19;19911;-68
2022/12/18 00:19:21;;;;;;;62.42;19.27;;;-4.90;99.90;;;;;;7405173;19;19918;-68
2022/12/18 00:21:51;;;;;;;64.15;19.38;;;;;;;;;;7407059;19;19918;-67
2022/12/18 00:24:20;;;;;;;41.08;13.52;;;-5.10;99.90;;;;;;7405010;19;19918;-68
2022/12/18 00:26:49;;;;;;;52.97;18.02;;;;;;;;;;7405966;19;19990;-67
2022/12/18 00:29:20;;;;;;;61.13;19.90;;;-4.80;99.90;;;;;;7404677;19;19971;-67
2022/12/18 00:31:50;;;;;;;61.88;18.17;;;-4.10;99.90;;;;;;7404526;19;19915;-68
2022/12/18 00:34:19;;;;;;;58.53;18.65;;;;;;;;;;7404944;19;19918;-67
2022/12/18 00:36:50;;;;;;;64.57;18.60;;;-5.40;99.90;;;;;;7404544;19;19919;-68
2022/12/18 00:39:19;;;;;;;56.85;16.67;;;-4.40;99.90;;;;;;7407079;19;19936;-69
2022/12/18 00:44:35;;;;;;;51.17;16.73;;;-4.90;99.90;;;;;;7404205;19;19914;-66
2022/12/18 00:47:06;;;;;;;63.90;19.25;;;-4.20;99.90;;;;;;7403952;19;20378;-67
2022/12/18 00:49:35;;;;;;;50.25;15.98;;;-4.30;99.90;;;;;;7404491;19;19919;-67
2022/12/18 00:52:04;;;;;;;62.85;18.77;;;-4.80;99.90;;;;;;7404246;19;19946;-67
2022/12/18 00:54:34;;;;;;;66.47;19.20;;;;;;;;;;7406443;19;19911;-67
2022/12/18 00:57:03;;;;;;;62.00;17.65;;;-5.10;99.90;;;;;;7407435;19;19929;-67
2022/12/18 00:59:32;;;;;;;64.00;18.08;;;;;;;;;;7403604;19;19910;-67
2022/12/18 01:02:04;;;;;;;44.25;15.02;;;-5.30;99.90;;;;;;7403308;19;19914;-67
2022/12/18 01:04:36;;;;;;;53.95;16.67;;;;;;;;;;7404146;19;19943;-67
2022/12/18 01:07:05;;;;;;;66.57;18.40;;;-4.80;99.90;;;;;;7402996;19;19974;-67
2022/12/18 01:09:34;;;;;;;50.75;15.18;;;-4.40;99.90;;;;;;7403861;19;19911;-67
2022/12/18 01:12:03;;;;;;;64.88;18.75;;;-4.30;99.90;;;;;;7407952;19;19929;-67
2022/12/18 01:14:32;;;;;;;57.60;17.30;;;-4.20;99.90;;;;;;7403141;19;19918;-67
2022/12/18 01:17:04;;;;;;;72.03;17.25;;;-5.10;99.90;;;;;;7403535;19;19933;-67
2022/12/18 01:19:48;;;;;;;61.42;19.48;;;-4.20;99.90;;;;;;7403115;19;19942;-67
2022/12/18 01:22:18;;;;;;;61.45;17.95;;;-4.30;99.90;;;;;;7402802;19;20262;-67
2022/12/18 01:24:47;;;;;;;58.38;18.23;;;;;;;;;;7406143;19;19938;-67
2022/12/18 01:27:16;;;;;;;58.60;17.88;;;-5.30;99.90;;;;;;7404774;19;19974;-67
2022/12/18 01:29:53;;;;;;;53.95;17.58;;;-5.30;99.90;;;;;;7405563;19;19931;-67
2022/12/18 01:32:26;;;;;;;75.13;18.92;;;-4.80;99.90;;;;;;7402551;19;20673;-67
2022/12/18 01:35:05;;;;;;;68.53;19.48;;;-5.40;99.90;;;;;;7402961;19;19926;-67
2022/12/18 01:37:37;;;;;;;52.47;17.52;;;-5.70;99.90;;;;;;7402422;19;19919;-67
2022/12/18 01:40:07;;;;;;;60.90;18.73;;;-4.20;99.90;;;;;;7405037;19;20357;-67
2022/12/18 01:42:36;;;;;;;66.65;20.80;;;-5.50;99.90;;;;;;7402721;19;19984;-67
2022/12/18 01:45:25;;;;;;;60.10;17.27;;;-5.30;99.90;;;;;;7402328;19;19925;-67
2022/12/18 01:48:02;;;;;;;58.10;16.75;;;-5.50;99.90;;;;;;7406116;19;19915;-67
2022/12/18 01:50:35;;;;;;;61.40;18.73;;;-4.40;99.90;;;;;;7402291;19;19921;-68
2022/12/18 01:53:08;;;;;;;66.55;21.65;;;-4.10;99.90;;;;;;7402376;19;20319;-67
2022/12/18 01:55:43;;;;;;;55.42;17.05;;;-4.80;99.90;;;;;;7395340;19;20029;-67
2022/12/18 01:58:13;;;;;;;54.05;18.02;;;-4.10;99.90;;;;;;7402111;19;20334;-67
2022/12/18 02:00:42;;;;;;;70.35;20.70;;;-5.40;99.90;;;;;;7401181;19;19943;-67
2022/12/18 02:03:14;;;;;;;63.25;17.67;;;-4.50;99.90;;;;;;7403382;19;19930;-67
2022/12/18 02:05:51;;;;;;;62.47;20.73;;;-4.80;99.90;;;;;;7394968;19;20010;-66
2022/12/18 02:08:27;;;;;;;72.45;22.05;;;-5.20;99.90;;;;;;7400618;19;19915;-67
2022/12/18 02:11:05;;;;;;;63.40;21.17;;;-5.60;99.90;;;;;;7401534;19;19925;-67
2022/12/18 02:13:43;;;;;;;61.10;20.10;;;-4.20;99.90;;;;;;7402681;19;19945;-67
2022/12/18 02:16:21;;;;;;;47.22;16.30;;;-4.90;99.90;;;;;;7402067;19;19919;-67
2022/12/18 02:18:55;;;;;;;;;;;-4.80;99.90;;;;;;7404814;19;19918;-67
2022/12/18 02:21:34;;;;;;;51.67;17.15;;;-5.50;99.90;;;;;;7402331;19;19929;-67
2022/12/18 02:24:18;;;;;;;52.08;16.70;;;-4.50;99.90;;;;;;7406048;19;19926;-67
2022/12/18 02:26:52;;;;;;;62.72;19.98;;;-4.90;99.90;;;;;;7404702;19;19922;-67
2022/12/18 02:29:27;;;;;;;57.33;18.23;;;-5.00;99.90;;;;;;7401299;19;19942;-67
2022/12/18 02:31:59;;;;;;;50.75;17.33;;;-5.40;99.90;;;;;;7402243;19;19911;-67
2022/12/18 02:34:31;;;;;;;54.33;16.35;;;-5.00;99.90;;;;;;7408770;19;19919;-68
2022/12/18 02:37:03;;;;;;;59.20;18.05;;;-5.10;99.90;;;;;;7409223;19;19995;-67
2022/12/18 02:39:33;;;;;;;52.25;17.13;;;-4.40;99.90;;;;;;7410793;19;19919;-68
2022/12/18 02:42:07;;;;;;;57.63;18.25;;;-5.00;99.90;;;;;;7412256;19;19914;-67
2022/12/18 02:44:37;;;;;;;53.70;17.45;;;-5.20;99.90;;;;;;7409271;19;19942;-68
2022/12/18 02:47:06;;;;;;;56.05;16.88;;;-4.50;99.90;;;;;;7409041;19;19918;-67
2022/12/18 02:49:42;;;;;;;51.25;17.55;;;-4.60;99.90;;;;;;7417141;19;19907;-66
2022/12/18 02:52:20;;;;;;;51.00;18.25;;;-4.50;99.90;;;;;;7415851;19;19919;-67
2022/12/18 02:54:59;;;;;;;58.53;17.23;;;-4.60;99.90;;;;;;7416340;19;19926;-67
2022/12/18 02:57:37;;;;;;;54.15;17.92;;;-4.60;99.90;;;;;;7414540;19;19910;-66
2022/12/18 03:00:11;;;;;;;60.38;18.08;;;-5.20;99.90;;;;;;7414167;19;19923;-67
2022/12/18 03:02:46;;;;;;;64.95;18.88;;;-4.50;99.90;;;;;;7414133;19;19918;-68
2022/12/18 03:05:19;;;;;;;52.97;17.52;;;-5.50;99.90;;;;;;7414223;19;19926;-69
2022/12/18 03:07:53;;;;;;;63.72;17.77;;;-5.50;99.90;;;;;;7413919;19;19927;-67
2022/12/18 03:10:27;;;;;;;58.55;18.70;;;-5.80;99.90;;;;;;7411530;19;19927;-68
2022/12/18 03:13:05;;;;;;;59.22;19.27;;;-5.50;99.90;;;;;;7410201;19;20641;-68
2022/12/18 03:15:39;;;;;;;56.88;16.95;;;-5.70;99.90;;;;;;7407451;19;19922;-68
2022/12/18 03:18:13;;;;;;;58.65;18.90;;;-4.60;99.90;;;;;;7405893;19;20261;-68
2022/12/18 03:20:46;;;;;;;64.57;17.27;;;-5.50;99.90;;;;;;7403931;19;20377;-68
2022/12/18 03:23:19;;;;;;;56.78;16.70;;;-5.60;99.90;;;;;;7411215;19;19914;-67
2022/12/18 03:25:51;;;;;;;54.28;17.85;;;-5.00;99.90;;;;;;7399136;19;20022;-67
2022/12/18 03:28:25;;;;;;;52.95;16.50;;;-6.40;99.90;;;;;;7406224;19;19915;-68
2022/12/18 03:31:00;;;;;;;54.78;16.92;;;-5.60;99.90;;;;;;7406346;19;19935;-68
2022/12/18 03:33:32;;;;;;;42.95;16.73;;;-5.80;99.90;;;;;;7405983;19;19914;-68
2022/12/18 03:36:01;;;;;;;43.03;15.65;;;-5.90;99.90;;;;;;7405733;19;19911;-68
2022/12/18 03:38:31;;;;;;;42.63;14.15;;;;;;;;;;7406856;19;19926;-68
2022/12/18 03:41:05;;;;;;;31.42;12.85;;;-5.70;99.90;;;;;;7406354;19;20385;-68
2022/12/18 03:43:50;;;;;;;41.90;12.77;;;-6.70;99.90;;;;;;7404472;19;19919;-68
2022/12/18 03:46:28;;;;;;;38.92;14.25;;;-6.50;99.90;;;;;;7409320;19;20377;-68
2022/12/18 03:49:04;;;;;;;40.63;14.70;;;-5.40;99.90;;;;;;7404505;19;19919;-68
2022/12/18 03:51:41;;;;;;;40.63;13.50;;;-5.40;99.90;;;;;;7407308;19;19954;-68
2022/12/18 03:54:12;;;;;;;30.95;13.20;;;-6.30;99.90;;;;;;7406342;19;19907;-68
2022/12/18 03:56:46;;;;;;;35.13;12.60;;;-5.10;99.90;;;;;;7407426;19;19922;-68
2022/12/18 03:59:19;;;;;;;32.65;12.43;;;-5.10;99.90;;;;;;7405233;19;19982;-68
2022/12/18 04:01:50;;;;;;;34.60;12.10;;;-6.10;99.90;;;;;;7405141;19;19918;-67
2022/12/18 04:04:21;;;;;;;33.63;12.90;;;-5.90;99.90;;;;;;7405824;19;20260;-67
2022/12/18 04:06:52;;;;;;;36.65;12.65;;;-5.80;99.90;;;;;;7407751;19;19923;-68
2022/12/18 04:09:22;;;;;;;40.17;12.73;;;-5.60;99.90;;;;;;7403383;19;20277;-68
2022/12/18 04:11:51;;;;;;;37.42;12.60;;;-5.70;99.90;;;;;;7405085;19;20281;-68
2022/12/18 04:14:23;;;;;;;30.38;13.25;;;-5.20;99.90;;;;;;7404445;19;19926;-68
2022/12/18 04:16:52;;;;;;;36.88;12.18;;;;;;;;;;7404753;19;19914;-68
2022/12/18 04:19:29;;;;;;;31.75;12.88;;;;;;;;;;7405962;19;19919;-68
2022/12/18 04:21:58;;;;;;;31.20;11.38;;;-5.70;99.90;;;;;;7405472;19;19925;-67
2022/12/18 04:24:27;;;;;;;31.70;13.30;;;;;;;;;;7407048;19;19924;-67
2022/12/18 04:26:56;;;;;;;32.13;12.68;;;-6.00;99.90;;;;;;7404191;19;19978;-67
2022/12/18 04:29:28;;;;;;;33.00;11.93;;;-6.50;99.90;;;;;;7403024;19;19922;-67
2022/12/18 04:31:57;;;;;;;33.35;12.00;;;-6.40;99.90;;;;;;7403768;19;19930;-68
2022/12/18 04:34:27;;;;;;;33.50;12.00;;;-5.70;99.90;;;;;;7404806;19;19994;-67
2022/12/18 04:36:57;;;;;;;28.50;11.65;;;;;;;;;;7406820;19;20316;-67
2022/12/18 04:39:26;;;;;;;33.75;12.02;;;-5.80;99.90;;;;;;7404728;19;20426;-67
2022/12/18 04:41:55;;;;;;;27.58;11.50;;;-6.10;99.90;;;;;;7405436;19;19919;-67
2022/12/18 04:44:24;;;;;;;28.08;11.82;;;;;;;;;;7400655;19;20028;-67
2022/12/18 04:46:56;;;;;;;31.00;12.32;;;-6.00;99.90;;;;;;7404461;19;19914;-67
2022/12/18 04:49:25;;;;;;;30.17;11.55;;;-5.50;99.90;;;;;;7402732;19;20744;-66
2022/12/18 04:51:54;;;;;;;33.25;11.88;;;-6.30;99.90;;;;;;7403833;19;20382;-67
2022/12/18 04:54:23;;;;;;;33.20;13.25;;;-6.50;99.90;;;;;;7407361;19;20266;-67
2022/12/18 04:56:52;;;;;;;30.70;11.10;;;-5.70;99.90;;;;;;7403733;19;19950;-67
2022/12/18 04:59:21;;;;;;;30.33;11.18;;;-5.40;99.90;;;;;;7403544;19;20344;-67
2022/12/18 05:01:50;;;;;;;27.23;11.25;;;-6.20;99.90;;;;;;7403435;19;19918;-66
2022/12/18 05:04:22;;;;;;;26.45;12.15;;;-6.20;99.90;;;;;;7404353;19;19919;-66
2022/12/18 05:06:51;;;;;;;27.33;11.05;;;-5.50;99.90;;;;;;7404788;19;19929;-67
2022/12/18 05:09:19;;;;;;;26.02;9.88;;;-6.20;99.90;;;;;;7402667;19;19915;-66
2022/12/18 05:11:49;;;;;;;27.17;10.48;;;-5.90;99.90;;;;;;7407983;19;19915;-66
2022/12/18 05:14:18;;;;;;;28.33;9.48;;;-6.40;99.90;;;;;;7403216;19;19925;-67
2022/12/18 05:16:47;;;;;;;31.35;12.00;;;-6.20;99.90;;;;;;7404241;19;19923;-66
2022/12/18 05:19:16;;;;;;;25.75;9.93;;;;;;;;;;7402957;19;19974;-66
2022/12/18 05:21:48;;;;;;;28.67;11.10;;;-6.30;99.90;;;;;;7404513;19;19919;-67
2022/12/18 05:24:17;;;;;;;26.55;10.18;;;;;;;;;;7404010;19;20078;-66
2022/12/18 05:26:46;;;;;;;26.73;11.13;;;-6.50;99.90;;;;;;7402710;19;19915;-66
2022/12/18 05:29:20;;;;;;;34.40;12.88;;;-6.40;99.90;;;;;;7401550;19;19918;-66
2022/12/18 05:31:49;;;;;;;27.33;10.10;;;-6.30;99.90;;;;;;7402473;19;19911;-67
2022/12/18 05:34:18;;;;;;;33.67;11.80;;;-6.20;99.90;;;;;;7403289;19;19921;-67
2022/12/18 05:36:49;;;;;;;25.58;10.00;;;-6.20;99.90;;;;;;7406283;19;19926;-67
2022/12/18 05:39:19;;;;;;;;;;;-6.20;99.90;;;;;;7406435;19;19925;-66
2022/12/18 05:41:48;;;;;;;23.17;9.18;;;;;;;;;;7403365;19;20352;-69
2022/12/18 05:44:17;;;;;;;30.23;10.85;;;-6.40;99.90;;;;;;7405314;19;19914;-66
2022/12/18 05:46:47;;;;;;;28.95;11.18;;;;;;;;;;7407729;19;19914;-67
2022/12/18 05:49:17;;;;;;;28.92;10.88;;;;;;;;;;7407123;19;19907;-67
2022/12/18 05:51:46;;;;;;;28.20;10.57;;;;;;;;;;7402938;19;20346;-66
2022/12/18 05:54:17;;;;;;;29.38;11.23;;;-5.60;99.90;;;;;;7402151;19;19922;-66
2022/12/18 05:56:46;;;;;;;24.73;10.63;;;-5.60;99.90;;;;;;7403124;19;19914;-66
2022/12/18 05:59:24;;;;;;;28.83;11.27;;;-7.00;99.90;;;;;;7401500;19;19919;-66
2022/12/18 06:01:53;;;;;;;24.85;9.18;;;-6.50;99.90;;;;;;7404280;19;19918;-66
2022/12/18 06:04:22;;;;;;;24.17;10.40;;;-5.70;99.90;;;;;;7397378;19;20082;-66
2022/12/18 06:06:51;;;;;;;37.03;11.85;;;-6.20;99.90;;;;;;7407145;19;19926;-67
2022/12/18 06:09:23;;;;;;;27.50;9.63;;;-6.20;99.90;;;;;;7406975;19;19915;-66
2022/12/18 06:11:55;;;;;;;28.27;11.00;;;-7.00;99.90;;;;;;7408477;19;19911;-66
2022/12/18 06:14:24;;;;;;;24.08;9.60;;;-6.40;99.90;;;;;;7408703;19;19933;-66
2022/12/18 06:16:56;;;;;;;27.58;10.18;;;-6.90;99.90;;;;;;7408176;19;19958;-66
2022/12/18 06:19:25;;;;;;;24.00;9.82;;;-7.10;99.90;;;;;;7411728;19;19922;-67
2022/12/18 06:21:58;;;;;;;20.10;9.20;;;-7.10;99.90;;;;;;7408150;19;19918;-66
2022/12/18 06:24:30;;;;;;;25.92;9.75;;;-6.60;99.90;;;;;;7408433;19;20353;-66
2022/12/18 06:26:59;;;;;;;31.23;10.77;;;-6.20;99.90;;;;;;7408497;19;19941;-66
2022/12/18 06:29:29;;;;;;;20.52;10.00;;;;;;;;;;7406677;19;19926;-66
2022/12/18 06:31:57;;;;;;;21.90;9.30;;;-6.80;99.90;;;;;;7407983;19;19978;-66
2022/12/18 06:34:27;;;;;;;27.92;10.30;;;-6.30;99.90;;;;;;7408423;19;19925;-66
2022/12/18 06:36:56;;;;;;;29.88;10.68;;;;;;;;;;7412448;19;19926;-66
2022/12/18 06:39:35;;;;;;;23.02;9.07;;;-6.50;99.90;;;;;;7407527;19;20334;-67
2022/12/18 06:42:04;;;;;;;20.08;9.82;;;;;;;;;;7407899;19;19918;-66
2022/12/18 06:44:33;;;;;;;21.45;9.27;;;-6.10;99.90;;;;;;7401239;19;20014;-66
2022/12/18 06:47:02;;;;;;;24.98;10.20;;;-5.80;99.90;;;;;;7407334;19;19926;-66
2022/12/18 06:49:31;;;;;;;26.15;10.15;;;;;;;;;;7406100;19;19925;-66
2022/12/18 06:52:01;;;;;;;30.63;11.05;;;-6.00;99.90;;;;;;7407566;19;19921;-66
2022/12/18 06:54:30;;;;;;;24.95;9.48;;;-6.20;99.90;;;;;;7407372;19;20474;-67
2022/12/18 06:57:04;;;;;;;25.45;10.40;;;-6.60;99.90;;;;;;7407549;19;20381;-66
2022/12/18 06:59:33;;;;;;;23.05;10.73;;;-7.30;99.90;;;;;;7406825;19;20425;-66
2022/12/18 07:02:02;;;;;;;26.73;9.68;;;-6.80;99.90;;;;;;7406806;19;20438;-66
2022/12/18 07:04:32;;;;;;;23.52;10.27;;;-6.70;99.90;;;;;;7409025;19;19933;-66
2022/12/18 07:07:01;;;;;;;21.77;9.90;;;-7.40;99.90;;;;;;7407163;19;19919;-66
2022/12/18 07:09:30;;;;;;;26.02;9.05;;;-6.00;99.90;;;;;;7407299;19;19915;-66
2022/12/18 07:11:59;;;;;;;22.98;9.63;;;-6.80;99.90;;;;;;7406812;19;19986;-67
2022/12/18 07:14:30;;;;;;;28.65;10.15;;;-6.80;99.90;;;;;;7406931;19;19918;-67
2022/12/18 07:16:59;;;;;;;23.70;9.57;;;-7.00;99.90;;;;;;7406580;19;20023;-67
2022/12/18 07:19:29;;;;;;;20.75;8.52;;;;;;;;;;7404308;19;20267;-66
2022/12/18 07:21:58;;;;;;;24.38;9.18;;;-6.60;99.90;;;;;;7407069;19;19923;-66
2022/12/18 07:24:27;;;;;;;20.35;8.00;;;-7.50;99.90;;;;;;7399328;19;20042;-66
2022/12/18 07:26:56;;;;;;;25.08;9.95;;;-7.40;99.90;;;;;;7407865;19;19982;-67
2022/12/18 07:29:29;;;;;;;28.20;10.55;;;-6.10;99.90;;;;;;7406055;19;19931;-66
2022/12/18 07:31:58;;;;;;;19.42;7.68;;;-7.00;99.90;;;;;;7405933;19;19918;-66
2022/12/18 07:34:35;;;;;;;22.45;8.65;;;-6.70;99.90;;;;;;7407617;19;19940;-66
2022/12/18 07:37:07;;;;;;;19.30;8.30;;;-6.30;99.90;;;;;;7409175;19;19911;-66
2022/12/18 07:39:41;;;;;;;20.67;8.23;;;-6.50;99.90;;;;;;7405857;19;19918;-66
2022/12/18 07:44:56;;;;;;;;;;;-6.70;99.90;;;;;;7407594;19;19922;-66
2022/12/18 07:47:25;;;;;;;16.40;7.20;;;-7.00;99.90;;;;;;7405650;19;20380;-66
2022/12/18 07:49:54;;;;;;;19.73;8.85;;;;;;;;;;7404522;19;19922;-66
2022/12/18 07:52:24;;;;;;;21.48;8.30;;;-6.70;99.90;;;;;;7405979;19;19946;-66
2022/12/18 07:54:53;;;;;;;17.17;7.60;;;-6.10;99.90;;;;;;7405789;19;19918;-65
2022/12/18 07:57:30;;;;;;;21.17;7.80;;;;;;;;;;7406573;19;19948;-66
2022/12/18 08:00:01;;;;;;;23.33;8.80;;;-7.20;99.90;;;;;;7406426;19;19910;-66
2022/12/18 08:02:33;;;;;;;16.77;7.85;;;-6.60;99.90;;;;;;7404888;19;19939;-66
2022/12/18 08:05:08;;;;;;;18.80;9.23;;;-6.90;99.90;;;;;;7408247;19;20029;-66
2022/12/18 08:07:37;;;;;;;19.05;8.82;;;-6.20;99.90;;;;;;7405391;19;20302;-66
2022/12/18 08:10:08;;;;;;;18.08;7.90;;;-5.80;99.90;;;;;;7404394;19;19919;-66
2022/12/18 08:12:39;;;;;;;19.30;7.70;;;-6.40;99.90;;;;;;7404818;19;19950;-67
2022/12/18 08:15:12;;;;;;;18.50;8.27;;;-6.50;99.90;;;;;;7405391;19;19915;-66
2022/12/18 08:17:41;;;;;;;22.88;8.35;;;-6.80;99.90;;;;;;7406713;19;19915;-67
2022/12/18 08:20:11;;;;;;;17.23;7.65;;;-6.30;99.90;;;;;;7404074;19;19958;-66
2022/12/18 08:22:40;;;;;;;16.17;7.20;;;-7.00;99.90;;;;;;7404620;19;20392;-67
2022/12/18 08:25:10;;;;;;;15.85;7.93;;;-5.70;99.90;;;;;;7407935;19;19919;-67
2022/12/18 08:27:39;;;;;;;18.48;7.30;;;-6.10;99.90;;;;;;7404401;19;19929;-67
2022/12/18 08:30:13;;;;;;;15.80;6.55;;;-5.60;99.90;;;;;;7407046;19;19918;-67
2022/12/18 08:32:41;;;;;;;18.05;7.43;;;-6.30;99.90;;;;;;7403128;19;19938;-67
2022/12/18 08:35:11;;;;;;;16.17;7.47;;;-6.60;99.90;;;;;;7408845;19;19911;-66
2022/12/18 08:37:41;;;;;;;17.55;7.57;;;-6.80;99.90;;;;;;7404961;19;19911;-67
2022/12/18 08:40:16;;;;;;;16.17;7.25;;;-5.90;99.90;;;;;;7403884;19;19939;-67
2022/12/18 08:45:30;;;;;;;14.73;7.18;;;-6.10;99.90;;;;;;7404253;19;20338;-67
2022/12/18 08:47:59;;;;;;;18.65;7.75;;;-6.80;99.90;;;;;;7404616;19;19935;-67
2022/12/18 08:50:28;;;;;;;14.48;6.40;;;-5.30;99.90;;;;;;7403015;19;19919;-67
2022/12/18 08:52:57;;;;;;;15.77;5.88;;;;;;;;;;7408669;19;19940;-67
2022/12/18 08:55:27;;;;;;;12.07;6.60;;;-5.60;99.90;;;;;;7404350;19;19978;-67
2022/12/18 08:57:56;;;;;;;15.55;6.38;;;-6.10;99.90;;;;;;7403845;19;20420;-66
2022/12/18 09:00:25;;;;;;;13.50;5.80;;;-6.40;99.90;;;;;;7407622;19;19926;-66
2022/12/18 09:02:56;;;;;;;15.90;6.38;;;-5.70;99.90;;;;;;7404986;19;19990;-66
2022/12/18 09:05:25;;;;;;;10.60;6.10;;;-6.40;99.90;;;;;;7403810;19;20270;-66
2022/12/18 09:07:56;;;;;;;10.38;5.70;;;-5.20;99.90;;;;;;7404468;19;19925;-66
2022/12/18 09:10:25;;;;;;;12.18;6.57;;;-6.10;99.90;;;;;;7402238;19;19914;-66
2022/12/18 09:12:55;;;;;;;11.93;5.10;;;-5.80;99.90;;;;;;7404240;19;19974;-66
2022/12/18 09:15:25;;;;;;;15.30;6.15;;;-5.80;99.90;;;;;;7403110;19;20385;-66
2022/12/18 09:17:56;;;;;;;9.57;5.13;;;-5.70;99.90;;;;;;7403386;19;19945;-66
2022/12/18 09:20:28;;;;;;;11.88;5.65;;;-5.10;99.90;;;;;;7402360;19;19918;-66
2022/12/18 09:23:08;;;;;;;10.43;5.65;;;-5.70;99.90;;;;;;7403573;19;19910;-66
2022/12/18 09:25:38;;;;;;;11.75;4.72;;;-5.10;99.90;;;;;;7404674;19;20012;-66
2022/12/18 09:28:12;;;;;;;12.75;5.72;;;-5.30;99.90;;;;;;7402519;19;19925;-66
2022/12/18 09:30:41;;;;;;;13.23;5.70;;;-4.80;99.90;;;;;;7404953;19;19927;-66
2022/12/18 09:33:13;;;;;;;8.80;5.43;;;-4.50;99.90;;;;;;7402288;19;19974;-66
2022/12/18 09:35:43;;;;;;;12.55;5.93;;;-5.00;99.90;;;;;;7406564;19;19993;-66
2022/12/18 09:38:15;;;;;;;12.68;4.95;;;-4.20;99.90;;;;;;7402700;19;19919;-66
2022/12/18 09:40:47;;;;;;;8.77;4.50;;;-5.00;99.90;;;;;;7402402;19;19970;-67
2022/12/18 09:43:20;;;;;;;12.23;4.80;;;-4.60;99.90;;;;;;7403790;19;20346;-67
2022/12/18 09:45:53;;;;;;;8.32;4.63;;;-4.10;99.90;;;;;;7402861;19;19922;-67
2022/12/18 09:48:30;;;;;;;9.90;4.95;;;-3.90;99.90;;;;;;7402202;19;20259;-67
2022/12/18 09:51:04;;;;;;;10.50;5.00;;;-5.40;99.90;;;;;;7401174;19;19934;-67
2022/12/18 09:53:37;;;;;;;7.63;4.55;;;-3.80;99.90;;;;;;7402428;19;19922;-67
2022/12/18 09:56:07;;;;;;;9.65;4.35;;;-4.50;99.90;;;;;;7402015;19;20269;-68
2022/12/18 09:58:44;;;;;;;12.45;4.90;;;-3.80;99.90;;;;;;7401441;19;19930;-66
2022/12/18 10:01:13;;;;;;;11.90;5.00;;;-3.60;99.90;;;;;;7401795;19;19921;-66
2022/12/18 10:03:45;;;;;;;12.43;4.97;;;-4.30;99.90;;;;;;7401143;19;19911;-66
2022/12/18 10:06:18;;;;;;;8.98;4.30;;;-4.00;99.90;;;;;;7401884;19;20265;-66
2022/12/18 10:08:53;;;;;;;7.47;4.07;;;-3.50;99.90;;;;;;7402023;19;19914;-67
2022/12/18 10:11:31;;;;;;;10.43;4.32;;;-4.10;99.90;;;;;;7399989;19;19991;-66
2022/12/18 10:14:12;;;;;;;10.88;4.13;;;-3.70;99.90;;;;;;7401940;19;19911;-66
2022/12/18 10:16:49;;;;;;;10.45;4.38;;;-4.10;99.90;;;;;;7404040;19;19990;-66
2022/12/18 10:19:33;;;;;;;6.78;3.78;;;-4.10;99.90;;;;;;7401200;19;19921;-66
2022/12/18 10:22:13;;;;;;;8.45;4.07;;;-3.90;99.90;;;;;;7401108;19;19998;-66
2022/12/18 10:24:51;;;;;;;8.23;4.07;;;-3.70;99.90;;;;;;7400818;19;19914;-66
2022/12/18 10:27:23;;;;;;;;;;;-4.00;99.90;;;;;;7403666;19;19922;-66
2022/12/18 10:29:53;;;;;;;11.50;4.70;;;-3.90;99.90;;;;;;7402702;19;19936;-66
2022/12/18 10:32:25;;;;;;;10.38;4.40;;;-3.70;99.90;;;;;;7402851;19;19918;-66
2022/12/18 10:34:58;;;;;;;11.95;5.28;;;-3.80;99.90;;;;;;7403453;19;19914;-66
2022/12/18 10:37:30;;;;;;;12.10;5.53;;;-4.30;99.90;;;;;;7405089;19;19986;-66
2022/12/18 10:40:18;;;;;;;10.63;5.38;;;-2.90;99.90;;;;;;7400921;19;20346;-66
2022/12/18 10:43:07;;;;;;;9.55;5.28;;;-3.50;99.90;;;;;;7401078;19;19919;-66
2022/12/18 10:45:36;;;;;;;11.98;4.90;;;-4.10;99.90;;;;;;7400986;19;19939;-66
2022/12/18 10:48:06;;;;;;;9.27;4.45;;;-4.00;99.90;;;;;;7400337;19;19922;-66
2022/12/18 10:50:39;;;;;;;10.25;5.03;;;-3.60;99.90;;;;;;7401710;19;19983;-66
2022/12/18 10:53:09;;;;;;;9.10;4.32;;;-2.90;99.90;;;;;;7400148;19;19922;-66
2022/12/18 10:55:41;;;;;;;8.52;4.43;;;-2.50;99.90;;;;;;7406259;19;19932;-66
2022/12/18 10:58:23;;;;;;;7.10;3.97;;;-3.10;99.90;;;;;;7405459;19;20412;-67
2022/12/18 11:01:07;;;;;;;6.55;3.92;;;-3.30;99.90;;;;;;7407898;19;19926;-67
2022/12/18 11:03:38;;;;;;;8.32;4.05;;;-2.70;99.90;;;;;;7407084;19;19918;-67
2022/12/18 11:06:13;;;;;;;7.63;3.72;;;-2.60;99.90;;;;;;7406635;19;19918;-67
2022/12/18 11:08:43;;;;;;;9.77;4.22;;;-2.60;99.90;;;;;;7410834;19;20311;-67
2022/12/18 11:11:22;;;;;;;9.82;4.40;;;-3.20;99.90;;;;;;7405344;19;19914;-67
2022/12/18 11:14:02;;;;;;;9.75;4.10;;;-2.60;99.90;;;;;;7406641;19;19942;-66
2022/12/18 11:16:33;;;;;;;8.85;4.85;;;-3.10;99.90;;;;;;7407052;19;19922;-67
2022/12/18 11:19:24;;;;;;;9.75;4.20;;;-2.70;99.90;;;;;;7406263;19;19925;-66
2022/12/18 11:21:55;;;;;;;8.23;4.18;;;-2.60;99.90;;;;;;7399685;19;20021;-66
2022/12/18 11:24:36;;;;;;;8.95;4.25;;;-3.40;99.90;;;;;;7408183;19;19974;-66
2022/12/18 11:27:08;;;;;;;12.18;4.57;;;-2.70;99.90;;;;;;7405461;19;20257;-66
2022/12/18 11:29:39;;;;;;;9.23;5.00;;;-3.90;99.90;;;;;;7407864;19;20269;-67
2022/12/18 11:32:32;;;;;;;7.18;4.05;;;-3.90;99.90;;;;;;7407474;19;20349;-67
2022/12/18 11:35:10;;;;;;;8.50;4.32;;;-3.00;99.90;;;;;;7410809;19;19939;-67
2022/12/18 11:37:44;;;;;;;11.85;4.68;;;-2.20;99.90;;;;;;7410870;19;19943;-67
2022/12/18 11:40:19;;;;;;;9.07;3.97;;;-2.70;99.90;;;;;;7405751;19;19907;-67
2022/12/18 11:42:54;;;;;;;11.57;4.72;;;-3.40;99.90;;;;;;7410629;19;19922;-67
2022/12/18 11:45:30;;;;;;;9.10;4.32;;;-3.40;99.90;;;;;;7405715;19;19974;-68
2022/12/18 11:48:04;;;;;;;9.38;4.97;;;-2.50;99.90;;;;;;7405888;19;19921;-68
2022/12/18 11:50:44;;;;;;;12.05;4.45;;;-3.50;99.90;;;;;;7405060;19;19938;-67
2022/12/18 11:53:16;;;;;;;9.65;4.60;;;-2.70;99.90;;;;;;7405437;19;19919;-67
2022/12/18 11:55:53;;;;;;;10.38;4.72;;;-2.70;99.90;;;;;;7405630;19;19919;-67
2022/12/18 11:58:34;;;;;;;11.55;4.55;;;-3.00;99.90;;;;;;7406267;19;19950;-67
2022/12/18 12:01:14;;;;;;;6.30;3.78;;;-3.20;99.90;;;;;;7401767;19;20642;-67
2022/12/18 12:04:08;;;;;;;8.43;3.88;;;-2.90;99.90;;;;;;7404743;19;19911;-67
2022/12/18 12:06:47;;;;;;;8.57;4.22;;;-3.70;99.90;;;;;;7404350;19;20059;-67
2022/12/18 12:09:26;;;;;;;8.95;4.32;;;-2.20;99.90;;;;;;7405056;19;19925;-67
2022/12/18 12:12:01;;;;;;;;;;;-2.70;99.90;;;;;;7405849;19;19923;-66
2022/12/18 12:14:44;;;;;;;8.32;3.88;;;-3.00;99.90;;;;;;7404794;19;19930;-66
2022/12/18 12:17:24;;;;;;;10.13;4.18;;;-2.40;99.90;;;;;;7404893;19;19915;-68
2022/12/18 12:20:04;;;;;;;11.82;4.32;;;-3.10;99.90;;;;;;7404560;19;20243;-67
2022/12/18 12:22:42;;;;;;;7.20;3.72;;;-2.70;99.90;;;;;;7405443;19;19911;-67
2022/12/18 12:25:26;;;;;;;7.50;4.28;;;-2.10;99.90;;;;;;7404928;19;19915;-68
2022/12/18 12:28:07;;;;;;;6.05;3.70;;;-3.00;99.90;;;;;;7404757;19;19951;-68
2022/12/18 12:30:47;;;;;;;7.05;3.55;;;-3.10;99.90;;;;;;7408282;19;19946;-65
2022/12/18 12:33:30;;;;;;;8.88;4.18;;;-2.10;99.90;;;;;;7406510;19;19915;-68
2022/12/18 12:36:07;;;;;;;8.45;3.92;;;-3.00;99.90;;;;;;7404186;19;19954;-68
2022/12/18 12:38:43;;;;;;;8.68;4.78;;;-2.10;99.90;;;;;;7404672;19;19918;-68
2022/12/18 12:44:04;;;;;;;8.05;4.15;;;-3.00;99.90;;;;;;7404122;19;19922;-66
2022/12/18 12:46:38;;;;;;;8.02;3.95;;;-3.40;99.90;;;;;;7403851;19;19942;-67
2022/12/18 12:49:15;;;;;;;6.35;3.53;;;-2.60;99.90;;;;;;7405518;19;19957;-67
2022/12/18 12:51:47;;;;;;;10.45;4.40;;;-2.20;99.90;;;;;;7402981;19;20334;-68
2022/12/18 12:54:20;;;;;;;9.18;4.28;;;-2.40;99.90;;;;;;7403946;19;19923;-67
2022/12/18 12:56:54;;;;;;;7.32;4.22;;;-3.50;99.90;;;;;;7403769;19;19914;-66
2022/12/18 12:59:29;;;;;;;8.80;4.22;;;-2.00;99.90;;;;;;7403691;19;19989;-66
2022/12/18 13:02:05;;;;;;;8.05;3.55;;;-3.00;99.90;;;;;;7406121;19;19946;-67
2022/12/18 13:04:39;;;;;;;8.60;4.57;;;-3.10;99.90;;;;;;7403839;19;20312;-67
2022/12/18 13:07:17;;;;;;;10.35;4.00;;;-2.40;99.90;;;;;;7406384;19;19925;-67
2022/12/18 13:10:25;;;;;;;9.23;4.32;;;-2.50;99.90;;;;;;7403166;19;20028;-68
2022/12/18 13:13:02;;;;;;;11.55;4.65;;;-2.60;99.90;;;;;;7402975;19;19914;-67
2022/12/18 13:15:36;;;;;;;6.15;4.05;;;-3.00;99.90;;;;;;7403374;19;19936;-68
2022/12/18 13:18:19;;;;;;;9.45;4.45;;;-2.30;99.90;;;;;;7400557;19;19919;-68
2022/12/18 13:21:16;;;;;;;8.60;4.43;;;-2.90;99.90;;;;;;7402235;19;20361;-68
2022/12/18 13:23:45;;;;;;;9.75;4.82;;;;;;;;;;7407603;19;19918;-67
2022/12/18 13:26:32;;;;;;;7.88;4.38;;;-2.20;99.90;;;;;;7408481;19;19915;-68